createdAt,value
2019-01-03T00:01:59.504Z,-1.40
2019-01-03T00:04:54.328Z,-1.50
2019-01-03T00:07:47.892Z,-1.50
2019-01-03T00:10:38.125Z,-1.60
2019-01-03T00:13:27.784Z,-1.60
2019-01-03T00:16:22.124Z,-1.70
2019-01-03T00:19:12.026Z,-1.90
2019-01-03T00:21:57.052Z,-2.10
2019-01-03T00:24:54.346Z,-2.30
2019-01-03T00:27:44.714Z,-2.30
2019-01-03T00:30:46.027Z,-2.40
2019-01-03T00:33:36.938Z,-2.40
2019-01-03T00:36:46.484Z,-2.30
2019-01-03T00:39:41.364Z,-2.20
2019-01-03T00:42:42.285Z,-2.00
2019-01-03T00:45:49.228Z,-2.00
2019-01-03T00:48:39.324Z,-1.90
2019-01-03T00:51:31.148Z,-1.70
2019-01-03T00:54:24.704Z,-1.70
2019-01-03T00:57:18.664Z,-1.70
2019-01-03T01:00:22.046Z,-1.60
2019-01-03T01:03:16.404Z,-1.60
2019-01-03T01:05:57.184Z,-1.50
2019-01-03T01:08:42.880Z,-1.50
2019-01-03T01:11:35.085Z,-1.50
2019-01-03T01:14:24.744Z,-1.50
2019-01-03T01:17:34.684Z,-1.40
2019-01-03T01:20:25.064Z,-1.40
2019-01-03T01:23:19.326Z,-1.40
2019-01-03T01:26:09.305Z,-1.40
2019-01-03T01:29:03.587Z,-1.40
2019-01-03T01:31:55.144Z,-1.30
2019-01-03T01:34:52.494Z,-1.30
2019-01-03T01:37:42.964Z,-1.30
2019-01-03T01:40:39.004Z,-1.30
2019-01-03T01:43:33.724Z,-1.30
2019-01-03T01:46:33.604Z,-1.30
2019-01-03T01:49:34.225Z,-1.30
2019-01-03T01:52:26.506Z,-1.40
2019-01-03T01:55:16.524Z,-1.40
2019-01-03T01:58:26.184Z,-1.40
2019-01-03T02:01:20.264Z,-1.40
2019-01-03T02:04:27.784Z,-1.40
2019-01-03T02:07:18.025Z,-1.40
2019-01-03T02:10:08.264Z,-1.50
2019-01-03T02:13:11.646Z,-1.50
2019-01-03T02:16:01.405Z,-1.50
2019-01-03T02:18:58.864Z,-1.50
2019-01-03T02:21:48.304Z,-1.50
2019-01-03T02:24:42.203Z,-1.50
2019-01-03T02:27:46.186Z,-1.50
2019-01-03T02:30:53.345Z,-1.50
2019-01-03T02:33:44.025Z,-1.50
2019-01-03T02:36:47.926Z,-1.50
2019-01-03T02:39:38.005Z,-1.50
2019-01-03T02:42:27.869Z,-1.50
2019-01-03T02:45:18.467Z,-1.60
2019-01-03T02:48:10.284Z,-1.60
2019-01-03T02:51:00.574Z,-1.70
2019-01-03T02:53:58.404Z,-1.70
2019-01-03T02:56:48.906Z,-1.90
2019-01-03T03:02:43.416Z,-2.10
2019-01-03T03:05:43.915Z,-2.10
2019-01-03T03:08:35.134Z,-2.20
2019-01-03T03:11:38.814Z,-2.30
2019-01-03T03:14:28.202Z,-2.40
2019-01-03T03:17:18.436Z,-2.40
2019-01-03T03:20:18.635Z,-2.50
2019-01-03T03:23:19.256Z,-2.60
2019-01-03T03:26:19.540Z,-2.60
2019-01-03T03:29:06.518Z,-2.60
2019-01-03T03:32:01.229Z,-2.60
2019-01-03T03:34:51.534Z,-2.50
2019-01-03T03:37:41.394Z,-2.40
2019-01-03T03:40:31.616Z,-2.40
2019-01-03T03:43:21.856Z,-2.30
2019-01-03T03:46:12.076Z,-2.20
2019-01-03T03:49:02.114Z,-2.10
2019-01-03T03:51:56.421Z,-2.10
2019-01-03T03:54:41.836Z,-2.00
2019-01-03T03:57:25.696Z,-1.90
2019-01-03T04:00:15.674Z,-1.80
2019-01-03T04:03:05.855Z,-1.80
2019-01-03T04:05:56.074Z,-1.80
2019-01-03T04:08:52.461Z,-1.80
2019-01-03T04:11:50.396Z,-1.70
2019-01-03T04:14:40.275Z,-1.70
2019-01-03T04:17:30.797Z,-1.70
2019-01-03T04:20:22.677Z,-1.60
2019-01-03T04:23:14.195Z,-1.60
2019-01-03T04:26:08.049Z,-1.60
2019-01-03T04:29:08.816Z,-1.50
2019-01-03T04:32:03.254Z,-1.50
2019-01-03T04:34:58.034Z,-1.50
2019-01-03T04:37:58.856Z,-1.50
2019-01-03T04:40:48.875Z,-1.50
2019-01-03T04:43:39.115Z,-1.50
2019-01-03T04:46:45.775Z,-1.50
2019-01-03T04:49:36.054Z,-1.50
2019-01-03T04:52:26.176Z,-1.40
2019-01-03T04:55:32.875Z,-1.40
2019-01-03T04:58:22.655Z,-1.40
2019-01-03T05:01:49.655Z,-1.40
2019-01-03T05:04:54.694Z,-1.40
2019-01-03T05:07:44.878Z,-1.40
2019-01-03T05:10:39.234Z,-1.40
2019-01-03T05:13:33.716Z,-1.40
2019-01-03T05:16:40.076Z,-1.40
2019-01-03T05:19:43.121Z,-1.40
2019-01-03T05:22:33.635Z,-1.40
2019-01-03T05:25:30.835Z,-1.50
2019-01-03T05:28:34.814Z,-1.40
2019-01-03T05:31:28.275Z,-1.40
2019-01-03T05:34:18.214Z,-1.50
2019-01-03T05:37:13.195Z,-1.50
2019-01-03T05:40:08.815Z,-1.50
2019-01-03T05:43:03.858Z,-1.50
2019-01-03T05:45:54.555Z,-1.50
2019-01-03T05:48:44.835Z,-1.50
2019-01-03T05:51:42.335Z,-1.50
2019-01-03T05:54:37.175Z,-1.50
2019-01-03T05:57:28.776Z,-1.50
2019-01-03T06:00:18.794Z,-1.40
2019-01-03T06:03:16.082Z,-1.50
2019-01-03T06:06:23.343Z,-1.50
2019-01-03T06:09:10.836Z,-1.40
2019-01-03T06:12:09.196Z,-1.50
2019-01-03T06:15:00.755Z,-1.50
2019-01-03T06:17:51.957Z,-1.50
2019-01-03T06:20:51.746Z,-1.50
2019-01-03T06:23:36.554Z,-1.60
2019-01-03T06:26:27.214Z,-1.60
2019-01-03T06:29:25.773Z,-1.70
2019-01-03T06:32:31.089Z,-1.70
2019-01-03T06:35:41.435Z,-1.80
2019-01-03T06:38:44.736Z,-1.80
2019-01-03T06:41:45.237Z,-1.80
2019-01-03T06:44:46.018Z,-1.80
2019-01-03T06:47:36.633Z,-1.80
2019-01-03T06:50:39.096Z,-1.80
2019-01-03T06:53:29.217Z,-1.70
2019-01-03T06:56:30.094Z,-1.70
2019-01-03T06:59:20.994Z,-1.70
2019-01-03T07:02:30.814Z,-1.60
2019-01-03T07:05:25.094Z,-1.60
2019-01-03T07:08:16.254Z,-1.50
2019-01-03T07:11:22.083Z,-1.50
2019-01-03T07:14:11.456Z,-1.50
2019-01-03T07:17:03.716Z,-1.40
2019-01-03T07:19:54.015Z,-1.40
2019-01-03T07:22:46.434Z,-1.40
2019-01-03T07:25:36.415Z,-1.30
2019-01-03T07:28:46.255Z,-1.30
2019-01-03T07:31:50.955Z,-1.30
2019-01-03T07:34:46.976Z,-1.20
2019-01-03T07:37:53.515Z,-1.10
2019-01-03T07:40:57.529Z,-1.10
2019-01-03T07:43:47.174Z,-1.10
2019-01-03T07:46:38.478Z,-1.10
2019-01-03T07:49:35.615Z,-1.10
2019-01-03T07:52:26.442Z,-1.00
2019-01-03T07:55:16.895Z,-1.00
2019-01-03T07:58:26.634Z,-1.00
2019-01-03T08:01:17.515Z,-0.90
2019-01-03T08:04:12.166Z,-0.90
2019-01-03T08:07:19.975Z,-0.90
2019-01-03T08:10:10.254Z,-0.90
2019-01-03T08:13:10.676Z,-0.90
2019-01-03T08:16:02.641Z,-0.80
2019-01-03T08:18:45.816Z,-0.70
2019-01-03T08:21:37.924Z,-0.60
2019-01-03T08:24:28.113Z,-0.50
2019-01-03T08:27:18.495Z,-0.50
2019-01-03T08:30:00.274Z,-0.40
2019-01-03T08:33:10.327Z,-0.40
2019-01-03T08:36:01.414Z,-0.40
2019-01-03T08:38:51.294Z,-0.40
2019-01-03T08:41:41.055Z,-0.40
2019-01-03T08:44:40.575Z,-0.30
2019-01-03T08:47:30.835Z,-0.30
2019-01-03T08:50:24.374Z,-0.30
2019-01-03T08:53:14.574Z,-0.30
2019-01-03T08:56:05.996Z,-0.20
2019-01-03T08:58:56.057Z,-0.20
2019-01-03T09:01:46.334Z,-0.20
2019-01-03T09:04:36.515Z,-0.30
2019-01-03T09:07:26.975Z,-0.30
2019-01-03T09:10:30.674Z,-0.30
2019-01-03T09:13:20.895Z,-0.30
2019-01-03T09:16:24.955Z,-0.30
2019-01-03T09:19:14.635Z,-0.30
2019-01-03T09:22:06.076Z,-0.20
2019-01-03T09:25:06.855Z,-0.20
2019-01-03T09:28:03.733Z,-0.20
2019-01-03T09:30:57.955Z,-0.20
2019-01-03T09:33:50.294Z,-0.20
2019-01-03T09:36:47.095Z,-0.20
2019-01-03T09:39:50.815Z,-0.20
2019-01-03T09:42:40.975Z,-0.10
2019-01-03T09:45:14.017Z,-0.10
2019-01-03T09:47:46.555Z,0.00
2019-01-03T09:50:18.975Z,0.10
2019-01-03T09:52:51.636Z,0.20
2019-01-03T09:55:24.055Z,0.30
2019-01-03T09:57:57.556Z,0.50
2019-01-03T10:00:30.315Z,0.50
2019-01-03T10:03:02.538Z,0.50
2019-01-03T10:05:35.415Z,0.60
2019-01-03T10:08:08.616Z,0.80
2019-01-03T10:10:40.796Z,0.90
2019-01-03T10:13:13.254Z,0.90
2019-01-03T10:15:45.283Z,0.80
2019-01-03T10:18:17.995Z,0.80
2019-01-03T10:20:50.176Z,0.70
2019-01-03T10:23:23.137Z,0.70
2019-01-03T10:25:55.794Z,0.70
2019-01-03T10:28:28.174Z,0.70
2019-01-03T10:31:01.558Z,0.80
2019-01-03T10:33:34.154Z,0.70
2019-01-03T10:36:07.048Z,0.70
2019-01-03T10:38:39.346Z,0.70
2019-01-03T10:41:12.914Z,0.70
2019-01-03T10:43:45.294Z,0.80
2019-01-03T10:46:18.196Z,0.90
2019-01-03T10:48:50.932Z,0.80
2019-01-03T10:51:24.096Z,0.70
2019-01-03T10:53:56.875Z,0.70
2019-01-03T10:56:29.294Z,0.70
2019-01-03T10:59:01.695Z,0.70
2019-01-03T11:01:34.252Z,0.80
2019-01-03T11:04:08.295Z,0.80
2019-01-03T11:06:40.894Z,0.70
2019-01-03T11:09:13.515Z,0.60
2019-01-03T11:11:46.154Z,0.50
2019-01-03T11:14:18.794Z,0.30
2019-01-03T11:16:51.754Z,0.10
2019-01-03T11:19:24.095Z,0.10
2019-01-03T11:21:56.594Z,0.20
2019-01-03T11:24:28.615Z,0.30
2019-01-03T11:27:01.474Z,0.40
2019-01-03T11:29:33.956Z,0.50
2019-01-03T11:32:06.186Z,0.50
2019-01-03T11:34:38.795Z,0.50
2019-01-03T11:37:11.557Z,0.50
2019-01-03T11:39:44.347Z,0.50
2019-01-03T11:42:17.215Z,0.50
2019-01-03T11:44:51.755Z,0.40
2019-01-03T11:47:25.055Z,0.30
2019-01-03T11:49:57.375Z,0.20
2019-01-03T11:52:29.552Z,0.20
2019-01-03T11:55:02.014Z,0.10
2019-01-03T11:57:34.634Z,0.10
2019-01-03T12:00:09.475Z,0.10
2019-01-03T12:02:42.475Z,0.00
2019-01-03T12:05:15.374Z,-0.30
2019-01-03T12:07:47.775Z,-0.50
2019-01-03T12:10:20.675Z,-0.70
2019-01-03T12:12:53.521Z,-0.80
2019-01-03T12:15:25.344Z,-1.00
2019-01-03T12:17:57.793Z,-1.20
2019-01-03T12:20:30.340Z,-1.30
2019-01-03T12:23:03.454Z,-1.50
2019-01-03T12:25:35.754Z,-1.60
2019-01-03T12:28:08.474Z,-1.70
2019-01-03T12:30:41.915Z,-1.70
2019-01-03T12:33:15.133Z,-1.70
2019-01-03T12:35:47.734Z,-1.80
2019-01-03T12:38:19.795Z,-1.80
2019-01-03T12:40:53.314Z,-1.80
2019-01-03T12:43:25.554Z,-1.80
2019-01-03T12:45:58.194Z,-1.80
2019-01-03T12:48:31.106Z,-1.80
2019-01-03T12:51:03.209Z,-1.80
2019-01-03T12:53:35.614Z,-1.90
2019-01-03T12:56:08.434Z,-1.90
2019-01-03T12:58:41.537Z,-1.90
2019-01-03T13:01:14.154Z,-1.80
2019-01-03T13:03:46.063Z,-1.80
2019-01-03T13:06:21.177Z,-1.80
2019-01-03T13:08:54.013Z,-1.80
2019-01-03T13:11:26.313Z,-1.70
2019-01-03T13:13:58.956Z,-1.70
2019-01-03T13:16:31.894Z,-1.70
2019-01-03T13:19:04.344Z,-1.70
2019-01-03T13:21:37.055Z,-1.70
2019-01-03T13:24:09.555Z,-1.70
2019-01-03T13:26:41.593Z,-1.70
2019-01-03T13:29:14.174Z,-1.70
2019-01-03T13:31:47.334Z,-1.70
2019-01-03T13:34:20.088Z,-1.70
2019-01-03T13:36:52.097Z,-1.70
2019-01-03T13:39:24.437Z,-1.80
2019-01-03T13:41:59.615Z,-1.80
2019-01-03T13:44:32.076Z,-1.80
2019-01-03T13:47:04.876Z,-1.80
2019-01-03T13:49:37.035Z,-1.70
2019-01-03T13:52:09.570Z,-1.80
2019-01-03T13:54:41.674Z,-1.80
2019-01-03T13:57:14.734Z,-1.80
2019-01-03T13:59:48.734Z,-1.80
2019-01-03T14:02:21.694Z,-1.80
2019-01-03T14:04:54.654Z,-1.80
2019-01-03T14:07:28.595Z,-1.80
2019-01-03T14:10:00.914Z,-1.80
2019-01-03T14:12:33.513Z,-1.80
2019-01-03T14:15:06.313Z,-1.80
2019-01-03T14:17:38.536Z,-1.80
2019-01-03T14:20:13.057Z,-1.80
2019-01-03T14:22:45.695Z,-1.90
2019-01-03T14:25:18.335Z,-1.90
2019-01-03T14:27:50.795Z,-1.90
2019-01-03T14:30:23.615Z,-1.90
2019-01-03T14:32:56.414Z,-1.90
2019-01-03T14:35:28.595Z,-1.90
2019-01-03T14:38:00.577Z,-1.90
2019-01-03T14:40:33.514Z,-1.80
2019-01-03T14:43:05.974Z,-1.80
2019-01-03T14:45:39.018Z,-1.80
2019-01-03T14:48:11.452Z,-1.80
2019-01-03T14:50:44.095Z,-1.80
2019-01-03T14:53:16.357Z,-1.80
2019-01-03T14:55:48.837Z,-1.80
2019-01-03T14:58:21.353Z,-1.80
2019-01-03T15:00:54.817Z,-1.80
2019-01-03T15:03:27.955Z,-1.80
2019-01-03T15:06:00.153Z,-1.80
2019-01-03T15:08:33.070Z,-1.80
2019-01-03T15:11:05.575Z,-1.80
2019-01-03T15:13:38.653Z,-1.80
2019-01-03T15:16:11.454Z,-1.80
2019-01-03T15:18:43.920Z,-1.80
2019-01-03T15:21:16.216Z,-1.90
2019-01-03T15:23:49.074Z,-2.00
2019-01-03T15:26:24.355Z,-2.00
2019-01-03T15:28:57.216Z,-2.10
2019-01-03T15:31:30.073Z,-2.20
2019-01-03T15:34:02.794Z,-2.20
2019-01-03T15:36:35.135Z,-2.30
2019-01-03T15:39:07.775Z,-2.30
2019-01-03T15:41:40.491Z,-2.30
2019-01-03T15:44:12.916Z,-2.40
2019-01-03T15:46:45.377Z,-2.40
2019-01-03T15:49:18.376Z,-2.40
2019-01-03T15:51:51.174Z,-2.50
2019-01-03T15:54:23.371Z,-2.50
2019-01-03T15:56:56.397Z,-2.50
2019-01-03T15:59:28.894Z,-2.50
2019-01-03T16:02:01.414Z,-2.50
2019-01-03T16:04:33.875Z,-2.50
2019-01-03T16:07:06.754Z,-2.60
2019-01-03T16:09:39.134Z,-2.50
2019-01-03T16:12:11.774Z,-2.60
2019-01-03T16:14:44.095Z,-2.60
2019-01-03T16:17:16.595Z,-2.60
2019-01-03T16:19:49.050Z,-2.50
2019-01-03T16:22:21.674Z,-2.50
2019-01-03T16:24:54.654Z,-2.50
2019-01-03T16:27:27.796Z,-2.50
2019-01-03T16:30:00.578Z,-2.50
2019-01-03T16:32:33.415Z,-2.50
2019-01-03T16:35:06.174Z,-2.50
2019-01-03T16:37:40.716Z,-2.50
2019-01-03T16:40:12.908Z,-2.50
2019-01-03T16:42:45.954Z,-2.50
2019-01-03T16:45:29.615Z,-2.50
2019-01-03T16:48:02.634Z,-2.60
2019-01-03T16:50:36.414Z,-2.50
2019-01-03T16:53:09.355Z,-2.60
2019-01-03T16:55:42.045Z,-2.60
2019-01-03T16:58:15.055Z,-2.60
2019-01-03T17:00:48.713Z,-2.60
2019-01-03T17:03:20.647Z,-2.60
2019-01-03T17:05:53.714Z,-2.60
2019-01-03T17:08:26.494Z,-2.60
2019-01-03T17:10:59.294Z,-2.70
2019-01-03T17:13:31.777Z,-2.60
2019-01-03T17:16:04.735Z,-2.70
2019-01-03T17:18:37.695Z,-2.70
2019-01-03T17:21:10.388Z,-2.70
2019-01-03T17:23:43.137Z,-2.70
2019-01-03T17:26:15.547Z,-2.60
2019-01-03T17:28:48.435Z,-2.60
2019-01-03T17:31:20.896Z,-2.60
2019-01-03T17:33:53.214Z,-2.60
2019-01-03T17:36:26.155Z,-2.60
2019-01-03T17:39:00.693Z,-2.60
2019-01-03T17:41:33.694Z,-2.60
2019-01-03T17:44:06.014Z,-2.70
2019-01-03T17:46:38.639Z,-2.70
2019-01-03T17:49:11.922Z,-2.80
2019-01-03T17:51:45.538Z,-2.80
2019-01-03T17:54:18.496Z,-2.80
2019-01-03T17:56:51.455Z,-2.90
2019-01-03T17:59:24.595Z,-2.90
2019-01-03T18:01:57.078Z,-2.90
2019-01-03T18:04:32.850Z,-2.90
2019-01-03T18:07:06.194Z,-2.90
2019-01-03T18:09:38.796Z,-2.80
2019-01-03T18:12:11.536Z,-2.80
2019-01-03T18:14:44.454Z,-2.80
2019-01-03T18:17:17.055Z,-2.70
2019-01-03T18:19:49.314Z,-2.80
2019-01-03T18:22:28.297Z,-2.80
2019-01-03T18:25:00.674Z,-2.80
2019-01-03T18:27:33.002Z,-2.80
2019-01-03T18:30:05.694Z,-2.90
2019-01-03T18:32:38.250Z,-2.90
2019-01-03T18:35:10.795Z,-2.90
2019-01-03T18:37:43.776Z,-2.90
2019-01-03T18:40:17.215Z,-2.90
2019-01-03T18:42:50.695Z,-3.00
2019-01-03T18:45:25.154Z,-3.00
2019-01-03T18:47:57.954Z,-3.00
2019-01-03T18:50:30.314Z,-3.00
2019-01-03T18:53:02.955Z,-3.10
2019-01-03T18:55:35.296Z,-3.10
2019-01-03T18:58:08.376Z,-3.10
2019-01-03T19:00:40.538Z,-3.10
2019-01-03T19:03:13.205Z,-3.20
2019-01-03T19:05:45.715Z,-3.20
2019-01-03T19:08:18.655Z,-3.20
2019-01-03T19:10:50.818Z,-3.20
2019-01-03T19:13:23.776Z,-3.20
2019-01-03T19:15:57.208Z,-3.20
2019-01-03T19:18:29.716Z,-3.20
2019-01-03T19:21:02.506Z,-3.20
2019-01-03T19:23:35.131Z,-3.20
2019-01-03T19:26:08.424Z,-3.20
2019-01-03T19:28:41.215Z,-3.20
2019-01-03T19:31:13.312Z,-3.20
2019-01-03T19:33:45.755Z,-3.20
2019-01-03T19:36:18.814Z,-3.20
2019-01-03T19:38:51.516Z,-3.20
2019-01-03T19:41:23.814Z,-3.20
2019-01-03T19:43:56.400Z,-3.20
2019-01-03T19:46:29.056Z,-3.20
2019-01-03T19:49:01.997Z,-3.20
2019-01-03T19:51:34.975Z,-3.20
2019-01-03T19:54:07.967Z,-3.20
2019-01-03T19:56:40.274Z,-3.30
2019-01-03T19:59:13.234Z,-3.30
2019-01-03T20:01:46.257Z,-3.30
2019-01-03T20:04:18.954Z,-3.20
2019-01-03T20:06:51.278Z,-3.20
2019-01-03T20:09:23.634Z,-3.20
2019-01-03T20:11:56.244Z,-3.20
2019-01-03T20:14:30.255Z,-3.20
2019-01-03T20:17:05.835Z,-3.10
2019-01-03T20:19:42.253Z,-3.20
2019-01-03T20:22:14.974Z,-3.10
2019-01-03T20:24:49.056Z,-3.10
2019-01-03T20:27:24.077Z,-3.10
2019-01-03T20:30:03.477Z,-3.10
2019-01-03T20:32:41.917Z,-3.10
2019-01-03T20:35:15.576Z,-3.10
2019-01-03T20:37:53.151Z,-3.10
2019-01-03T20:40:28.095Z,-3.10
2019-01-03T20:43:01.055Z,-3.10
2019-01-03T20:45:37.857Z,-3.10
2019-01-03T20:48:11.194Z,-3.20
2019-01-03T20:50:44.009Z,-3.20
2019-01-03T20:53:19.314Z,-3.20
2019-01-03T20:55:51.634Z,-3.20
2019-01-03T20:58:24.715Z,-3.20
2019-01-03T21:00:59.276Z,-3.10
2019-01-03T21:03:32.094Z,-3.20
2019-01-03T21:06:05.035Z,-3.10
2019-01-03T21:08:38.655Z,-3.10
2019-01-03T21:11:11.139Z,-3.10
2019-01-03T21:13:44.255Z,-3.10
2019-01-03T21:16:17.214Z,-3.10
2019-01-03T21:18:50.814Z,-3.10
2019-01-03T21:21:23.315Z,-3.00
2019-01-03T21:23:56.075Z,-3.10
2019-01-03T21:26:29.212Z,-3.10
2019-01-03T21:29:01.767Z,-3.10
2019-01-03T21:31:34.634Z,-3.10
2019-01-03T21:34:07.719Z,-3.10
2019-01-03T21:36:40.579Z,-3.10
2019-01-03T21:39:13.395Z,-3.10
2019-01-03T21:41:46.315Z,-3.10
2019-01-03T21:44:18.734Z,-3.20
2019-01-03T21:46:59.134Z,-3.20
2019-01-03T21:49:32.861Z,-3.20
2019-01-03T21:52:08.046Z,-3.10
2019-01-03T21:54:41.994Z,-3.20
2019-01-03T21:57:15.455Z,-3.20
2019-01-03T21:59:47.774Z,-3.10
2019-01-03T22:02:21.354Z,-3.10
2019-01-03T22:04:54.794Z,-3.10
2019-01-03T22:07:27.595Z,-3.20
2019-01-03T22:10:00.223Z,-3.20
2019-01-03T22:12:32.597Z,-3.20
2019-01-03T22:15:06.501Z,-3.10
2019-01-03T22:17:39.462Z,-3.10
2019-01-03T22:20:13.720Z,-3.20
2019-01-03T22:22:46.535Z,-3.20
2019-01-03T22:25:18.877Z,-3.20
2019-01-03T22:27:51.449Z,-3.20
2019-01-03T22:30:25.462Z,-3.20
2019-01-03T22:32:58.494Z,-3.20
2019-01-03T22:35:32.395Z,-3.20
2019-01-03T22:38:05.457Z,-3.20
2019-01-03T22:40:37.713Z,-3.20
2019-01-03T22:43:10.694Z,-3.20
2019-01-03T22:45:42.994Z,-3.20
2019-01-03T22:48:16.014Z,-3.10
2019-01-03T22:50:48.416Z,-3.10
2019-01-03T22:53:21.370Z,-3.10
2019-01-03T22:55:54.228Z,-3.10
2019-01-03T22:58:26.516Z,-3.10
2019-01-03T23:00:59.513Z,-3.10
2019-01-03T23:03:32.156Z,-3.10
2019-01-03T23:06:04.554Z,-3.00
2019-01-03T23:08:37.994Z,-3.00
2019-01-03T23:11:10.376Z,-3.00
2019-01-03T23:13:42.657Z,-3.00
2019-01-03T23:16:15.593Z,-2.90
2019-01-03T23:18:48.574Z,-2.90
2019-01-03T23:21:21.196Z,-2.80
2019-01-03T23:23:55.134Z,-2.80
2019-01-03T23:26:27.255Z,-2.80
2019-01-03T23:28:59.789Z,-2.70
2019-01-03T23:31:32.157Z,-2.70
2019-01-03T23:34:05.033Z,-2.70
2019-01-03T23:36:37.414Z,-2.70
2019-01-03T23:39:10.654Z,-2.70
2019-01-03T23:41:43.094Z,-2.70
2019-01-03T23:44:16.116Z,-2.80
2019-01-03T23:46:48.915Z,-2.70
2019-01-03T23:49:22.059Z,-2.80
2019-01-03T23:51:53.987Z,-2.80
2019-01-03T23:54:26.497Z,-2.80
2019-01-03T23:56:59.114Z,-2.90
2019-01-03T23:59:31.944Z,-2.80
